Portada
METAR-TAF:

METAR-TAF

Aeroports :

Varna, Bulgària

latitud: 43-12N, longitud: 027-55E, altitud: 41 m

Observació

L'informe es va fer fa 38 minuts, a les 05:00 UTC
Vent 4 kt del Nord, variant entre Oest/Nord-Oest i Nord/Nord-Est
Temperatura 8°C
Humitat 49%
Pressió 1007 hPa
Visibilitat 10 km o més
sense núvols per sota de 1500 mi sense presència de cumulonimbus.

METAR: LBWN 240500Z 35004KT 300V020 CAVOK 08/M02 Q1007 NOSIG

Hora: 07:38 (05:38 UTC)

Pronòstic

L'informe es va fer fa 6 hores i 38 minuts, a les 23:00 UTC
Pronòstic vàlid del 24 a les 00 UTC al 24 a les 24 UTC
Vent 10 kt del Oest/Nord-Oest
Visibilitat 10 km o més
sense núvols per sota de 1500 mi sense presència de cumulonimbus.
Temporalment
l' 24 a les 08 UTC al 24 a les 17 UTC
Vent 20 kt del Oest/Nord-Oest amb ràfegues de 30 kt

TAF: LBWN 232300Z 2400/2424 30010KT CAVOK TEMPO 2408/2417 30020G30KT

Observacions i pronòstics meteorològics de més de 4000 aeroports (METAR i TAF).

Les estacions disponibles són els punts grocs i vermells al mapa.

Posi el ratolí al punt desitjat per veure el nom de l'estació.

Feu clic per veure les observacions i els pronòstics meteorològics.

Per canviar el mapa: feu clic els botons verds amb una creu de color negre per apropar; al botó verd amb un guió per allunyar la imatge; o en les fletxes verdes per a mapes adjacents.


METAR-TAF: